sensor_id;sensor_type;location;lat;lon;timestamp;temperature;humidity
67942;SHT31;54731;42.600;23.476;2023-07-16T00:01:48;23.34;68.43
67942;SHT31;54731;42.600;23.476;2023-07-16T00:04:13;23.31;68.70
67942;SHT31;54731;42.600;23.476;2023-07-16T00:06:39;23.28;68.76
67942;SHT31;54731;42.600;23.476;2023-07-16T00:09:04;23.28;68.77
67942;SHT31;54731;42.600;23.476;2023-07-16T00:11:29;23.25;68.65
67942;SHT31;54731;42.600;23.476;2023-07-16T00:13:55;23.14;69.05
67942;SHT31;54731;42.600;23.476;2023-07-16T00:16:21;23.10;69.24
67942;SHT31;54731;42.600;23.476;2023-07-16T00:18:46;23.12;69.25
67942;SHT31;54731;42.600;23.476;2023-07-16T00:21:12;23.08;69.18
67942;SHT31;54731;42.600;23.476;2023-07-16T00:23:37;23.12;69.54
67942;SHT31;54731;42.600;23.476;2023-07-16T00:26:02;22.98;69.52
67942;SHT31;54731;42.600;23.476;2023-07-16T00:28:28;23.00;69.48
67942;SHT31;54731;42.600;23.476;2023-07-16T00:30:53;22.97;69.71
67942;SHT31;54731;42.600;23.476;2023-07-16T00:33:18;23.00;69.73
67942;SHT31;54731;42.600;23.476;2023-07-16T00:35:47;22.97;69.65
67942;SHT31;54731;42.600;23.476;2023-07-16T00:38:13;22.86;70.09
67942;SHT31;54731;42.600;23.476;2023-07-16T00:40:38;22.77;70.48
67942;SHT31;54731;42.600;23.476;2023-07-16T00:43:03;22.77;70.53
67942;SHT31;54731;42.600;23.476;2023-07-16T00:45:28;22.73;70.63
67942;SHT31;54731;42.600;23.476;2023-07-16T00:47:54;22.73;70.54
67942;SHT31;54731;42.600;23.476;2023-07-16T00:50:19;22.71;70.59
67942;SHT31;54731;42.600;23.476;2023-07-16T00:52:45;22.73;70.39
67942;SHT31;54731;42.600;23.476;2023-07-16T00:55:10;22.71;70.12
67942;SHT31;54731;42.600;23.476;2023-07-16T00:57:36;22.74;70.27
67942;SHT31;54731;42.600;23.476;2023-07-16T01:00:02;22.75;69.94
67942;SHT31;54731;42.600;23.476;2023-07-16T01:02:27;22.67;70.31
67942;SHT31;54731;42.600;23.476;2023-07-16T01:04:53;22.68;70.72
67942;SHT31;54731;42.600;23.476;2023-07-16T01:07:21;22.64;70.83
67942;SHT31;54731;42.600;23.476;2023-07-16T01:09:49;22.59;71.04
67942;SHT31;54731;42.600;23.476;2023-07-16T01:12:14;22.44;71.46
67942;SHT31;54731;42.600;23.476;2023-07-16T01:14:40;22.50;71.47
67942;SHT31;54731;42.600;23.476;2023-07-16T01:17:05;22.44;71.57
67942;SHT31;54731;42.600;23.476;2023-07-16T01:19:31;22.49;71.47
67942;SHT31;54731;42.600;23.476;2023-07-16T01:29:51;22.40;71.62
67942;SHT31;54731;42.600;23.476;2023-07-16T01:32:20;22.44;71.23
67942;SHT31;54731;42.600;23.476;2023-07-16T01:34:46;22.37;71.48
67942;SHT31;54731;42.600;23.476;2023-07-16T01:37:12;22.36;71.49
67942;SHT31;54731;42.600;23.476;2023-07-16T01:39:38;22.30;71.39
67942;SHT31;54731;42.600;23.476;2023-07-16T01:42:03;22.28;71.56
67942;SHT31;54731;42.600;23.476;2023-07-16T01:44:28;22.29;71.42
67942;SHT31;54731;42.600;23.476;2023-07-16T01:47:23;22.23;71.84
67942;SHT31;54731;42.600;23.476;2023-07-16T01:49:49;22.32;71.27
67942;SHT31;54731;42.600;23.476;2023-07-16T01:52:14;22.24;71.42
67942;SHT31;54731;42.600;23.476;2023-07-16T01:54:40;22.24;71.29
67942;SHT31;54731;42.600;23.476;2023-07-16T01:57:05;22.22;71.55
67942;SHT31;54731;42.600;23.476;2023-07-16T01:59:30;22.16;71.46
67942;SHT31;54731;42.600;23.476;2023-07-16T02:01:56;22.10;71.72
67942;SHT31;54731;42.600;23.476;2023-07-16T02:04:21;22.09;71.97
67942;SHT31;54731;42.600;23.476;2023-07-16T02:06:46;22.08;71.90
67942;SHT31;54731;42.600;23.476;2023-07-16T02:09:11;22.06;71.92
67942;SHT31;54731;42.600;23.476;2023-07-16T02:11:37;22.05;71.84
67942;SHT31;54731;42.600;23.476;2023-07-16T02:14:02;22.00;72.09
67942;SHT31;54731;42.600;23.476;2023-07-16T02:16:27;21.95;72.37
67942;SHT31;54731;42.600;23.476;2023-07-16T02:18:53;21.93;72.14
67942;SHT31;54731;42.600;23.476;2023-07-16T02:21:18;21.86;72.19
67942;SHT31;54731;42.600;23.476;2023-07-16T02:23:43;21.83;72.43
67942;SHT31;54731;42.600;23.476;2023-07-16T02:26:08;21.86;72.31
67942;SHT31;54731;42.600;23.476;2023-07-16T02:28:34;21.83;72.35
67942;SHT31;54731;42.600;23.476;2023-07-16T02:30:59;21.81;72.07
67942;SHT31;54731;42.600;23.476;2023-07-16T02:33:24;21.75;72.23
67942;SHT31;54731;42.600;23.476;2023-07-16T02:35:50;21.76;72.10
67942;SHT31;54731;42.600;23.476;2023-07-16T02:38:15;21.76;72.19
67942;SHT31;54731;42.600;23.476;2023-07-16T02:40:48;21.76;72.34
67942;SHT31;54731;42.600;23.476;2023-07-16T02:43:14;21.79;72.09
67942;SHT31;54731;42.600;23.476;2023-07-16T02:45:39;21.78;72.00
67942;SHT31;54731;42.600;23.476;2023-07-16T02:48:05;21.74;72.15
67942;SHT31;54731;42.600;23.476;2023-07-16T02:50:35;21.66;72.16
67942;SHT31;54731;42.600;23.476;2023-07-16T02:53:00;21.65;72.09
67942;SHT31;54731;42.600;23.476;2023-07-16T02:55:26;21.65;71.93
67942;SHT31;54731;42.600;23.476;2023-07-16T02:57:51;21.62;71.99
67942;SHT31;54731;42.600;23.476;2023-07-16T03:00:16;21.62;72.20
67942;SHT31;54731;42.600;23.476;2023-07-16T03:02:41;21.62;72.25
67942;SHT31;54731;42.600;23.476;2023-07-16T03:05:07;21.61;72.19
67942;SHT31;54731;42.600;23.476;2023-07-16T03:07:32;21.61;72.21
67942;SHT31;54731;42.600;23.476;2023-07-16T03:09:58;21.65;72.06
67942;SHT31;54731;42.600;23.476;2023-07-16T03:12:23;21.54;72.14
67942;SHT31;54731;42.600;23.476;2023-07-16T03:14:50;21.52;72.22
67942;SHT31;54731;42.600;23.476;2023-07-16T03:17:15;21.55;72.00
67942;SHT31;54731;42.600;23.476;2023-07-16T03:19:43;21.57;71.86
67942;SHT31;54731;42.600;23.476;2023-07-16T03:22:09;21.54;71.83
67942;SHT31;54731;42.600;23.476;2023-07-16T03:24:34;21.55;72.05
67942;SHT31;54731;42.600;23.476;2023-07-16T03:26:59;21.63;71.72
67942;SHT31;54731;42.600;23.476;2023-07-16T03:29:25;21.62;71.48
67942;SHT31;54731;42.600;23.476;2023-07-16T03:31:50;21.58;71.47
67942;SHT31;54731;42.600;23.476;2023-07-16T03:34:15;21.57;71.51
67942;SHT31;54731;42.600;23.476;2023-07-16T03:36:40;21.57;71.83
67942;SHT31;54731;42.600;23.476;2023-07-16T03:39:06;21.54;71.70
67942;SHT31;54731;42.600;23.476;2023-07-16T03:41:31;21.55;71.80
67942;SHT31;54731;42.600;23.476;2023-07-16T03:43:56;21.51;71.93
67942;SHT31;54731;42.600;23.476;2023-07-16T03:46:21;21.52;71.66
67942;SHT31;54731;42.600;23.476;2023-07-16T03:48:47;21.42;71.81
67942;SHT31;54731;42.600;23.476;2023-07-16T03:51:12;21.39;72.08
67942;SHT31;54731;42.600;23.476;2023-07-16T03:53:38;21.52;71.43
67942;SHT31;54731;42.600;23.476;2023-07-16T03:56:03;21.47;71.78
67942;SHT31;54731;42.600;23.476;2023-07-16T03:58:29;21.52;71.52
67942;SHT31;54731;42.600;23.476;2023-07-16T04:00:54;21.54;71.55
67942;SHT31;54731;42.600;23.476;2023-07-16T04:03:19;21.57;71.50
67942;SHT31;54731;42.600;23.476;2023-07-16T04:05:45;21.58;71.27
67942;SHT31;54731;42.600;23.476;2023-07-16T04:08:10;21.57;71.34
67942;SHT31;54731;42.600;23.476;2023-07-16T04:10:35;21.59;71.33
67942;SHT31;54731;42.600;23.476;2023-07-16T04:13:01;21.57;71.41
67942;SHT31;54731;42.600;23.476;2023-07-16T04:15:26;21.54;71.64
67942;SHT31;54731;42.600;23.476;2023-07-16T04:17:51;21.54;71.80
67942;SHT31;54731;42.600;23.476;2023-07-16T04:20:17;21.58;71.64
67942;SHT31;54731;42.600;23.476;2023-07-16T04:22:42;21.55;71.79
67942;SHT31;54731;42.600;23.476;2023-07-16T04:25:07;21.66;71.33
67942;SHT31;54731;42.600;23.476;2023-07-16T04:27:33;21.71;71.29
67942;SHT31;54731;42.600;23.476;2023-07-16T04:29:58;21.68;71.27
67942;SHT31;54731;42.600;23.476;2023-07-16T04:32:23;21.74;71.13
67942;SHT31;54731;42.600;23.476;2023-07-16T04:34:49;21.79;70.95
67942;SHT31;54731;42.600;23.476;2023-07-16T04:37:14;21.76;71.04
67942;SHT31;54731;42.600;23.476;2023-07-16T04:39:39;21.76;71.23
67942;SHT31;54731;42.600;23.476;2023-07-16T04:42:05;21.89;71.00
67942;SHT31;54731;42.600;23.476;2023-07-16T04:44:30;21.95;70.89
67942;SHT31;54731;42.600;23.476;2023-07-16T04:46:55;21.95;71.01
67942;SHT31;54731;42.600;23.476;2023-07-16T04:49:21;22.02;70.58
67942;SHT31;54731;42.600;23.476;2023-07-16T04:51:46;22.05;70.46
67942;SHT31;54731;42.600;23.476;2023-07-16T04:54:11;22.19;70.41
67942;SHT31;54731;42.600;23.476;2023-07-16T04:56:37;22.23;69.88
67942;SHT31;54731;42.600;23.476;2023-07-16T04:59:02;22.23;70.11
67942;SHT31;54731;42.600;23.476;2023-07-16T05:01:27;22.26;70.02
67942;SHT31;54731;42.600;23.476;2023-07-16T05:03:52;22.33;70.02
67942;SHT31;54731;42.600;23.476;2023-07-16T05:06:18;22.43;69.54
67942;SHT31;54731;42.600;23.476;2023-07-16T05:08:43;22.41;69.92
67942;SHT31;54731;42.600;23.476;2023-07-16T05:11:08;22.47;69.70
67942;SHT31;54731;42.600;23.476;2023-07-16T05:13:34;22.54;69.29
67942;SHT31;54731;42.600;23.476;2023-07-16T05:15:59;22.56;69.59
67942;SHT31;54731;42.600;23.476;2023-07-16T05:18:24;22.65;69.38
67942;SHT31;54731;42.600;23.476;2023-07-16T05:20:50;22.71;68.96
67942;SHT31;54731;42.600;23.476;2023-07-16T05:23:15;22.75;69.06
67942;SHT31;54731;42.600;23.476;2023-07-16T05:25:48;22.78;68.95
67942;SHT31;54731;42.600;23.476;2023-07-16T05:28:16;22.90;68.69
67942;SHT31;54731;42.600;23.476;2023-07-16T05:30:41;23.00;68.61
67942;SHT31;54731;42.600;23.476;2023-07-16T05:33:07;23.05;68.46
67942;SHT31;54731;42.600;23.476;2023-07-16T05:35:32;23.12;67.37
67942;SHT31;54731;42.600;23.476;2023-07-16T05:37:57;23.18;68.19
67942;SHT31;54731;42.600;23.476;2023-07-16T05:40:23;23.31;67.76
67942;SHT31;54731;42.600;23.476;2023-07-16T05:42:48;23.41;67.39
67942;SHT31;54731;42.600;23.476;2023-07-16T05:45:13;23.46;67.26
67942;SHT31;54731;42.600;23.476;2023-07-16T05:47:39;23.51;67.44
67942;SHT31;54731;42.600;23.476;2023-07-16T05:50:05;23.61;67.19
67942;SHT31;54731;42.600;23.476;2023-07-16T05:52:30;23.69;66.37
67942;SHT31;54731;42.600;23.476;2023-07-16T05:54:55;23.75;66.07
67942;SHT31;54731;42.600;23.476;2023-07-16T05:57:21;23.75;65.65
67942;SHT31;54731;42.600;23.476;2023-07-16T05:59:46;23.83;65.35
67942;SHT31;54731;42.600;23.476;2023-07-16T06:02:11;23.89;65.63
67942;SHT31;54731;42.600;23.476;2023-07-16T06:04:36;23.89;65.80
67942;SHT31;54731;42.600;23.476;2023-07-16T06:07:02;23.97;65.26
67942;SHT31;54731;42.600;23.476;2023-07-16T06:09:28;24.10;65.53
67942;SHT31;54731;42.600;23.476;2023-07-16T06:11:53;24.12;64.89
67942;SHT31;54731;42.600;23.476;2023-07-16T06:14:18;24.21;64.14
67942;SHT31;54731;42.600;23.476;2023-07-16T06:16:43;24.31;63.86
67942;SHT31;54731;42.600;23.476;2023-07-16T06:19:09;24.41;63.70
67942;SHT31;54731;42.600;23.476;2023-07-16T06:21:34;24.47;63.44
67942;SHT31;54731;42.600;23.476;2023-07-16T06:24:00;24.60;62.90
67942;SHT31;54731;42.600;23.476;2023-07-16T06:26:25;24.68;63.10
67942;SHT31;54731;42.600;23.476;2023-07-16T06:28:50;24.75;63.29
67942;SHT31;54731;42.600;23.476;2023-07-16T06:31:17;24.82;63.87
67942;SHT31;54731;42.600;23.476;2023-07-16T06:33:42;24.87;63.13
67942;SHT31;54731;42.600;23.476;2023-07-16T06:36:07;24.92;63.05
67942;SHT31;54731;42.600;23.476;2023-07-16T06:38:33;24.99;63.05
67942;SHT31;54731;42.600;23.476;2023-07-16T06:40:58;25.04;62.76
67942;SHT31;54731;42.600;23.476;2023-07-16T06:43:23;25.12;62.95
67942;SHT31;54731;42.600;23.476;2023-07-16T06:45:49;25.14;62.75
67942;SHT31;54731;42.600;23.476;2023-07-16T06:48:15;25.16;62.64
67942;SHT31;54731;42.600;23.476;2023-07-16T06:50:40;25.25;62.14
67942;SHT31;54731;42.600;23.476;2023-07-16T06:53:05;25.29;62.27
67942;SHT31;54731;42.600;23.476;2023-07-16T06:55:31;25.34;62.47
67942;SHT31;54731;42.600;23.476;2023-07-16T06:57:56;25.41;63.03
67942;SHT31;54731;42.600;23.476;2023-07-16T07:00:21;25.45;62.37
67942;SHT31;54731;42.600;23.476;2023-07-16T07:02:47;25.49;62.01
67942;SHT31;54731;42.600;23.476;2023-07-16T07:05:12;25.50;62.60
67942;SHT31;54731;42.600;23.476;2023-07-16T07:07:37;25.56;63.00
67942;SHT31;54731;42.600;23.476;2023-07-16T07:10:03;25.67;61.65
67942;SHT31;54731;42.600;23.476;2023-07-16T07:12:28;25.69;61.67
67942;SHT31;54731;42.600;23.476;2023-07-16T07:14:54;25.72;60.92
67942;SHT31;54731;42.600;23.476;2023-07-16T07:17:19;25.76;62.46
67942;SHT31;54731;42.600;23.476;2023-07-16T07:19:44;25.65;62.23
67942;SHT31;54731;42.600;23.476;2023-07-16T07:22:10;25.67;61.71
67942;SHT31;54731;42.600;23.476;2023-07-16T07:24:35;25.72;62.06
67942;SHT31;54731;42.600;23.476;2023-07-16T07:27:01;25.77;62.46
67942;SHT31;54731;42.600;23.476;2023-07-16T07:29:26;25.85;63.05
67942;SHT31;54731;42.600;23.476;2023-07-16T07:31:52;25.83;62.67
67942;SHT31;54731;42.600;23.476;2023-07-16T07:34:18;25.85;62.33
67942;SHT31;54731;42.600;23.476;2023-07-16T07:36:43;25.96;63.26
67942;SHT31;54731;42.600;23.476;2023-07-16T07:39:08;25.96;62.95
67942;SHT31;54731;42.600;23.476;2023-07-16T07:41:33;25.98;63.07
67942;SHT31;54731;42.600;23.476;2023-07-16T07:43:59;26.00;63.19
67942;SHT31;54731;42.600;23.476;2023-07-16T07:46:24;26.10;62.53
67942;SHT31;54731;42.600;23.476;2023-07-16T07:48:50;26.12;61.69
67942;SHT31;54731;42.600;23.476;2023-07-16T07:51:15;26.12;62.71
67942;SHT31;54731;42.600;23.476;2023-07-16T07:53:40;26.13;62.44
67942;SHT31;54731;42.600;23.476;2023-07-16T07:56:06;26.20;61.37
67942;SHT31;54731;42.600;23.476;2023-07-16T07:58:31;26.27;62.39
67942;SHT31;54731;42.600;23.476;2023-07-16T08:00:56;26.34;62.03
67942;SHT31;54731;42.600;23.476;2023-07-16T08:03:21;26.40;61.76
67942;SHT31;54731;42.600;23.476;2023-07-16T08:05:50;26.44;61.64
67942;SHT31;54731;42.600;23.476;2023-07-16T08:08:15;26.52;62.69
67942;SHT31;54731;42.600;23.476;2023-07-16T08:10:42;26.57;61.93
67942;SHT31;54731;42.600;23.476;2023-07-16T08:13:07;26.65;61.64
67942;SHT31;54731;42.600;23.476;2023-07-16T08:15:32;26.74;61.75
67942;SHT31;54731;42.600;23.476;2023-07-16T08:17:58;26.74;61.30
67942;SHT31;54731;42.600;23.476;2023-07-16T08:20:23;26.81;62.13
67942;SHT31;54731;42.600;23.476;2023-07-16T08:22:48;26.81;60.36
67942;SHT31;54731;42.600;23.476;2023-07-16T08:25:13;26.84;62.10
67942;SHT31;54731;42.600;23.476;2023-07-16T08:27:39;26.91;61.54
67942;SHT31;54731;42.600;23.476;2023-07-16T08:30:05;26.99;59.98
67942;SHT31;54731;42.600;23.476;2023-07-16T08:32:30;26.95;61.10
67942;SHT31;54731;42.600;23.476;2023-07-16T08:34:56;27.01;61.88
67942;SHT31;54731;42.600;23.476;2023-07-16T08:37:21;27.03;60.35
67942;SHT31;54731;42.600;23.476;2023-07-16T08:39:46;27.09;60.90
67942;SHT31;54731;42.600;23.476;2023-07-16T08:42:12;27.18;62.31
67942;SHT31;54731;42.600;23.476;2023-07-16T08:44:37;27.25;60.52
67942;SHT31;54731;42.600;23.476;2023-07-16T08:47:04;27.31;60.62
67942;SHT31;54731;42.600;23.476;2023-07-16T08:49:30;27.33;60.35
67942;SHT31;54731;42.600;23.476;2023-07-16T08:51:55;27.38;60.12
67942;SHT31;54731;42.600;23.476;2023-07-16T08:54:22;27.39;60.22
67942;SHT31;54731;42.600;23.476;2023-07-16T08:56:48;27.47;61.20
67942;SHT31;54731;42.600;23.476;2023-07-16T08:59:17;27.62;60.72
67942;SHT31;54731;42.600;23.476;2023-07-16T09:01:43;27.73;60.52
67942;SHT31;54731;42.600;23.476;2023-07-16T09:04:09;27.83;59.80
67942;SHT31;54731;42.600;23.476;2023-07-16T09:06:35;27.82;59.23
67942;SHT31;54731;42.600;23.476;2023-07-16T09:09:00;27.84;59.50
67942;SHT31;54731;42.600;23.476;2023-07-16T09:11:25;27.92;59.42
67942;SHT31;54731;42.600;23.476;2023-07-16T09:13:51;28.00;59.94
67942;SHT31;54731;42.600;23.476;2023-07-16T09:16:19;28.06;58.85
67942;SHT31;54731;42.600;23.476;2023-07-16T09:18:44;28.16;59.63
67942;SHT31;54731;42.600;23.476;2023-07-16T09:21:10;28.18;59.08
67942;SHT31;54731;42.600;23.476;2023-07-16T09:23:35;28.24;59.20
67942;SHT31;54731;42.600;23.476;2023-07-16T09:26:01;28.33;59.55
67942;SHT31;54731;42.600;23.476;2023-07-16T09:28:26;28.45;58.90
67942;SHT31;54731;42.600;23.476;2023-07-16T09:30:52;28.54;59.69
67942;SHT31;54731;42.600;23.476;2023-07-16T09:33:22;28.61;59.51
67942;SHT31;54731;42.600;23.476;2023-07-16T09:35:48;28.69;57.70
67942;SHT31;54731;42.600;23.476;2023-07-16T09:38:15;28.79;59.07
67942;SHT31;54731;42.600;23.476;2023-07-16T09:40:40;28.83;57.39
67942;SHT31;54731;42.600;23.476;2023-07-16T09:43:06;28.81;57.37
67942;SHT31;54731;42.600;23.476;2023-07-16T09:45:31;28.87;57.18
67942;SHT31;54731;42.600;23.476;2023-07-16T09:47:57;28.99;58.47
67942;SHT31;54731;42.600;23.476;2023-07-16T09:50:27;29.10;57.15
67942;SHT31;54731;42.600;23.476;2023-07-16T09:52:53;29.18;56.79
67942;SHT31;54731;42.600;23.476;2023-07-16T09:55:22;29.16;56.01
67942;SHT31;54731;42.600;23.476;2023-07-16T09:57:47;29.23;57.73
67942;SHT31;54731;42.600;23.476;2023-07-16T10:00:14;29.34;57.60
67942;SHT31;54731;42.600;23.476;2023-07-16T10:02:41;29.46;56.67
67942;SHT31;54731;42.600;23.476;2023-07-16T10:05:17;29.52;55.80
67942;SHT31;54731;42.600;23.476;2023-07-16T10:07:48;29.66;57.18
67942;SHT31;54731;42.600;23.476;2023-07-16T10:10:14;29.70;55.58
67942;SHT31;54731;42.600;23.476;2023-07-16T10:12:41;29.80;56.04
67942;SHT31;54731;42.600;23.476;2023-07-16T10:15:06;29.83;55.31
67942;SHT31;54731;42.600;23.476;2023-07-16T10:17:32;29.67;55.50
67942;SHT31;54731;42.600;23.476;2023-07-16T10:22:41;29.70;55.80
67942;SHT31;54731;42.600;23.476;2023-07-16T10:27:45;30.05;55.58
67942;SHT31;54731;42.600;23.476;2023-07-16T10:30:11;30.15;55.28
67942;SHT31;54731;42.600;23.476;2023-07-16T10:32:37;30.27;55.17
67942;SHT31;54731;42.600;23.476;2023-07-16T10:35:04;30.15;54.31
67942;SHT31;54731;42.600;23.476;2023-07-16T10:37:30;30.17;55.67
67942;SHT31;54731;42.600;23.476;2023-07-16T10:39:57;30.31;54.32
67942;SHT31;54731;42.600;23.476;2023-07-16T10:42:24;30.45;53.36
67942;SHT31;54731;42.600;23.476;2023-07-16T10:44:50;30.55;53.02
67942;SHT31;54731;42.600;23.476;2023-07-16T10:47:24;30.80;54.12
67942;SHT31;54731;42.600;23.476;2023-07-16T10:49:52;30.99;52.49
67942;SHT31;54731;42.600;23.476;2023-07-16T10:52:18;31.19;53.23
67942;SHT31;54731;42.600;23.476;2023-07-16T10:54:43;31.34;51.82
67942;SHT31;54731;42.600;23.476;2023-07-16T10:57:11;31.39;50.77
67942;SHT31;54731;42.600;23.476;2023-07-16T10:59:39;31.37;50.10
67942;SHT31;54731;42.600;23.476;2023-07-16T11:02:08;31.47;51.64
67942;SHT31;54731;42.600;23.476;2023-07-16T11:04:35;31.61;49.81
67942;SHT31;54731;42.600;23.476;2023-07-16T11:07:07;31.70;49.08
67942;SHT31;54731;42.600;23.476;2023-07-16T11:09:32;31.81;48.66
67942;SHT31;54731;42.600;23.476;2023-07-16T11:12:09;31.91;49.44
67942;SHT31;54731;42.600;23.476;2023-07-16T11:14:35;32.18;49.93
67942;SHT31;54731;42.600;23.476;2023-07-16T11:17:05;32.35;48.69
67942;SHT31;54731;42.600;23.476;2023-07-16T11:19:31;32.29;50.22
67942;SHT31;54731;42.600;23.476;2023-07-16T11:21:56;32.35;49.16
67942;SHT31;54731;42.600;23.476;2023-07-16T11:24:21;32.65;47.84
67942;SHT31;54731;42.600;23.476;2023-07-16T11:26:56;32.86;47.79
67942;SHT31;54731;42.600;23.476;2023-07-16T11:29:21;32.96;46.18
67942;SHT31;54731;42.600;23.476;2023-07-16T11:31:53;33.17;46.79
67942;SHT31;54731;42.600;23.476;2023-07-16T11:34:21;33.39;47.14
67942;SHT31;54731;42.600;23.476;2023-07-16T11:36:48;33.81;46.73
67942;SHT31;54731;42.600;23.476;2023-07-16T11:39:13;33.71;45.33
67942;SHT31;54731;42.600;23.476;2023-07-16T11:41:38;33.78;45.09
67942;SHT31;54731;42.600;23.476;2023-07-16T11:44:07;34.32;44.75
67942;SHT31;54731;42.600;23.476;2023-07-16T11:46:33;34.48;43.07
67942;SHT31;54731;42.600;23.476;2023-07-16T11:49:00;34.45;43.07
67942;SHT31;54731;42.600;23.476;2023-07-16T11:51:25;35.13;43.41
67942;SHT31;54731;42.600;23.476;2023-07-16T11:53:51;35.49;41.47
67942;SHT31;54731;42.600;23.476;2023-07-16T11:56:16;35.77;41.28
67942;SHT31;54731;42.600;23.476;2023-07-16T11:58:41;35.96;39.92
67942;SHT31;54731;42.600;23.476;2023-07-16T12:01:07;36.34;40.92
67942;SHT31;54731;42.600;23.476;2023-07-16T12:03:32;36.44;39.41
67942;SHT31;54731;42.600;23.476;2023-07-16T12:05:57;36.65;39.42
67942;SHT31;54731;42.600;23.476;2023-07-16T12:08:23;36.79;38.66
67942;SHT31;54731;42.600;23.476;2023-07-16T12:10:48;36.72;38.81
67942;SHT31;54731;42.600;23.476;2023-07-16T12:13:13;37.02;37.57
67942;SHT31;54731;42.600;23.476;2023-07-16T12:15:39;37.54;37.98
67942;SHT31;54731;42.600;23.476;2023-07-16T12:18:04;37.88;37.75
67942;SHT31;54731;42.600;23.476;2023-07-16T12:20:29;38.25;34.36
67942;SHT31;54731;42.600;23.476;2023-07-16T12:22:55;38.13;34.05
67942;SHT31;54731;42.600;23.476;2023-07-16T12:25:20;38.28;34.31
67942;SHT31;54731;42.600;23.476;2023-07-16T12:27:46;38.11;33.87
67942;SHT31;54731;42.600;23.476;2023-07-16T12:30:11;38.59;35.54
67942;SHT31;54731;42.600;23.476;2023-07-16T12:32:36;38.96;33.29
67942;SHT31;54731;42.600;23.476;2023-07-16T12:35:02;39.12;33.43
67942;SHT31;54731;42.600;23.476;2023-07-16T12:37:27;39.47;33.92
67942;SHT31;54731;42.600;23.476;2023-07-16T12:39:52;39.98;33.32
67942;SHT31;54731;42.600;23.476;2023-07-16T12:42:18;40.44;32.49
67942;SHT31;54731;42.600;23.476;2023-07-16T12:44:43;40.48;32.31
67942;SHT31;54731;42.600;23.476;2023-07-16T12:47:08;40.42;32.13
67942;SHT31;54731;42.600;23.476;2023-07-16T12:49:34;40.27;31.79
67942;SHT31;54731;42.600;23.476;2023-07-16T12:51:59;40.44;31.86
67942;SHT31;54731;42.600;23.476;2023-07-16T12:54:25;40.21;31.06
67942;SHT31;54731;42.600;23.476;2023-07-16T12:56:50;40.30;33.12
67942;SHT31;54731;42.600;23.476;2023-07-16T12:59:15;40.48;30.78
67942;SHT31;54731;42.600;23.476;2023-07-16T13:01:40;40.37;31.83
67942;SHT31;54731;42.600;23.476;2023-07-16T13:04:06;40.37;30.85
67942;SHT31;54731;42.600;23.476;2023-07-16T13:06:31;40.15;30.39
67942;SHT31;54731;42.600;23.476;2023-07-16T13:08:56;40.78;30.47
67942;SHT31;54731;42.600;23.476;2023-07-16T13:11:24;41.17;29.36
67942;SHT31;54731;42.600;23.476;2023-07-16T13:13:49;41.56;29.36
67942;SHT31;54731;42.600;23.476;2023-07-16T13:16:14;41.05;28.27
67942;SHT31;54731;42.600;23.476;2023-07-16T13:18:40;40.85;30.04
67942;SHT31;54731;42.600;23.476;2023-07-16T13:21:05;41.77;28.17
67942;SHT31;54731;42.600;23.476;2023-07-16T13:23:30;42.18;28.46
67942;SHT31;54731;42.600;23.476;2023-07-16T13:25:56;41.63;29.13
67942;SHT31;54731;42.600;23.476;2023-07-16T13:28:21;41.49;29.84
67942;SHT31;54731;42.600;23.476;2023-07-16T13:30:46;41.39;28.77
67942;SHT31;54731;42.600;23.476;2023-07-16T13:33:12;41.52;29.20
67942;SHT31;54731;42.600;23.476;2023-07-16T13:35:37;41.42;28.64
67942;SHT31;54731;42.600;23.476;2023-07-16T13:38:02;41.61;29.48
67942;SHT31;54731;42.600;23.476;2023-07-16T13:40:27;41.80;29.35
67942;SHT31;54731;42.600;23.476;2023-07-16T13:42:53;42.11;28.55
67942;SHT31;54731;42.600;23.476;2023-07-16T13:45:18;42.35;28.02
67942;SHT31;54731;42.600;23.476;2023-07-16T13:47:43;42.42;28.10
67942;SHT31;54731;42.600;23.476;2023-07-16T13:50:09;42.68;27.69
67942;SHT31;54731;42.600;23.476;2023-07-16T13:52:34;42.48;27.37
67942;SHT31;54731;42.600;23.476;2023-07-16T13:54:59;42.55;28.17
67942;SHT31;54731;42.600;23.476;2023-07-16T13:57:25;42.78;26.92
67942;SHT31;54731;42.600;23.476;2023-07-16T13:59:50;42.93;27.29
67942;SHT31;54731;42.600;23.476;2023-07-16T14:02:15;42.58;25.34
67942;SHT31;54731;42.600;23.476;2023-07-16T14:04:41;42.37;26.06
67942;SHT31;54731;42.600;23.476;2023-07-16T14:07:06;42.28;27.27
67942;SHT31;54731;42.600;23.476;2023-07-16T14:09:31;42.45;27.25
67942;SHT31;54731;42.600;23.476;2023-07-16T14:11:57;42.44;25.72
67942;SHT31;54731;42.600;23.476;2023-07-16T14:14:22;42.16;26.68
67942;SHT31;54731;42.600;23.476;2023-07-16T14:16:48;42.27;27.95
67942;SHT31;54731;42.600;23.476;2023-07-16T14:19:13;42.04;25.86
67942;SHT31;54731;42.600;23.476;2023-07-16T14:21:39;42.25;28.11
67942;SHT31;54731;42.600;23.476;2023-07-16T14:24:04;42.50;27.94
67942;SHT31;54731;42.600;23.476;2023-07-16T14:26:30;42.63;28.41
67942;SHT31;54731;42.600;23.476;2023-07-16T14:28:56;42.05;28.56
67942;SHT31;54731;42.600;23.476;2023-07-16T14:31:21;41.63;29.32
67942;SHT31;54731;42.600;23.476;2023-07-16T14:33:46;41.27;30.32
67942;SHT31;54731;42.600;23.476;2023-07-16T14:36:11;41.65;30.25
67942;SHT31;54731;42.600;23.476;2023-07-16T14:38:37;41.80;28.83
67942;SHT31;54731;42.600;23.476;2023-07-16T14:41:02;41.72;28.83
67942;SHT31;54731;42.600;23.476;2023-07-16T14:43:27;41.40;30.24
67942;SHT31;54731;42.600;23.476;2023-07-16T14:45:53;41.66;29.54
67942;SHT31;54731;42.600;23.476;2023-07-16T14:48:18;42.14;28.84
67942;SHT31;54731;42.600;23.476;2023-07-16T14:50:43;42.20;28.23
67942;SHT31;54731;42.600;23.476;2023-07-16T14:53:08;42.28;29.03
67942;SHT31;54731;42.600;23.476;2023-07-16T14:55:34;42.51;28.64
67942;SHT31;54731;42.600;23.476;2023-07-16T14:57:59;42.87;28.54
67942;SHT31;54731;42.600;23.476;2023-07-16T15:00:24;42.80;27.73
67942;SHT31;54731;42.600;23.476;2023-07-16T15:02:50;42.71;27.86
67942;SHT31;54731;42.600;23.476;2023-07-16T15:05:15;42.52;28.57
67942;SHT31;54731;42.600;23.476;2023-07-16T15:07:40;42.76;28.92
67942;SHT31;54731;42.600;23.476;2023-07-16T15:10:06;43.15;28.72
67942;SHT31;54731;42.600;23.476;2023-07-16T15:12:32;43.25;27.72
67942;SHT31;54731;42.600;23.476;2023-07-16T15:14:57;43.13;27.79
67942;SHT31;54731;42.600;23.476;2023-07-16T15:17:22;43.05;27.76
67942;SHT31;54731;42.600;23.476;2023-07-16T15:19:48;42.62;27.90